createdAt,value
2022-11-22T00:00:43.800Z,0.57
2022-11-22T00:03:10.932Z,0.60
2022-11-22T00:05:38.100Z,0.50
2022-11-22T00:08:05.593Z,0.40
2022-11-22T00:10:33.461Z,0.40
2022-11-22T00:13:00.684Z,0.50
2022-11-22T00:15:28.036Z,0.40
2022-11-22T00:17:55.188Z,0.40
2022-11-22T00:20:22.400Z,0.40
2022-11-22T00:22:49.419Z,0.50
2022-11-22T00:25:16.566Z,0.43
2022-11-22T00:27:43.910Z,0.30
2022-11-22T00:30:11.402Z,0.60
2022-11-22T00:32:38.633Z,0.60
2022-11-22T00:35:06.352Z,0.73
2022-11-22T00:37:33.455Z,0.77
2022-11-22T00:40:00.512Z,0.70
2022-11-22T00:42:27.574Z,0.70
2022-11-22T00:44:54.717Z,0.70
2022-11-22T00:47:21.804Z,1.00
2022-11-22T00:49:48.952Z,1.40
2022-11-22T00:52:15.899Z,1.13
2022-11-22T00:54:43.150Z,1.47
2022-11-22T00:57:10.135Z,1.30
2022-11-22T00:59:40.243Z,1.20
2022-11-22T01:02:07.373Z,0.90
2022-11-22T01:04:34.707Z,1.07
2022-11-22T01:07:01.860Z,1.77
2022-11-22T01:09:29.855Z,1.90
2022-11-22T01:11:57.078Z,1.27
2022-11-22T01:14:24.217Z,1.30
2022-11-22T01:16:51.193Z,1.20
2022-11-22T01:19:18.383Z,1.40
2022-11-22T01:21:45.709Z,1.30
2022-11-22T01:24:12.826Z,1.60
2022-11-22T01:26:39.810Z,1.30
2022-11-22T01:29:06.980Z,1.07
2022-11-22T01:31:34.250Z,1.37
2022-11-22T01:34:01.457Z,1.60
2022-11-22T01:36:29.462Z,1.50
2022-11-22T01:38:56.612Z,1.50
2022-11-22T01:41:23.696Z,1.33
2022-11-22T01:43:51.015Z,1.60
2022-11-22T01:46:33.310Z,1.30
2022-11-22T01:49:25.243Z,1.57
2022-11-22T01:51:56.300Z,1.27
2022-11-22T01:54:26.067Z,1.70
2022-11-22T01:56:59.332Z,1.90
2022-11-22T01:59:31.286Z,1.37
2022-11-22T02:01:59.898Z,1.63
2022-11-22T02:04:29.999Z,1.80
2022-11-22T02:07:06.200Z,1.50
2022-11-22T02:09:34.833Z,1.40
2022-11-22T02:12:04.160Z,1.47
2022-11-22T02:14:32.734Z,1.53
2022-11-22T02:17:00.131Z,1.50
2022-11-22T02:19:45.074Z,1.47
2022-11-22T02:22:39.490Z,1.50
2022-11-22T02:25:25.523Z,1.50
2022-11-22T02:27:52.848Z,1.47
2022-11-22T02:30:20.222Z,1.70
2022-11-22T02:32:47.594Z,1.40
2022-11-22T02:35:21.870Z,1.70
2022-11-22T02:37:58.538Z,1.50
2022-11-22T02:40:28.308Z,1.47
2022-11-22T02:43:20.702Z,1.70
2022-11-22T02:45:47.775Z,1.57
2022-11-22T02:48:17.850Z,1.37
2022-11-22T02:50:45.305Z,1.70
2022-11-22T02:53:13.537Z,1.33
2022-11-22T02:55:41.176Z,1.13
2022-11-22T02:58:08.472Z,1.57
2022-11-22T03:00:37.891Z,1.30
2022-11-22T03:03:05.205Z,1.20
2022-11-22T03:05:32.592Z,1.60
2022-11-22T03:07:59.994Z,1.20
2022-11-22T03:10:27.139Z,1.33
2022-11-22T03:12:54.169Z,1.00
2022-11-22T03:15:21.311Z,1.10
2022-11-22T03:17:48.288Z,1.37
2022-11-22T03:20:15.441Z,1.10
2022-11-22T03:22:42.496Z,1.00
2022-11-22T03:25:09.728Z,1.77
2022-11-22T03:27:36.697Z,1.33
2022-11-22T03:30:04.446Z,1.40
2022-11-22T03:32:31.489Z,1.67
2022-11-22T03:34:58.553Z,1.70
2022-11-22T03:37:25.729Z,1.40
2022-11-22T03:39:52.911Z,1.43
2022-11-22T03:42:21.998Z,1.03
2022-11-22T03:44:49.338Z,1.23
2022-11-22T03:47:16.470Z,1.43
2022-11-22T03:49:43.692Z,1.10
2022-11-22T03:52:10.745Z,1.23
2022-11-22T03:54:37.862Z,1.13
2022-11-22T03:57:05.648Z,1.13
2022-11-22T03:59:32.984Z,1.00
2022-11-22T04:02:00.227Z,1.13
2022-11-22T04:04:27.407Z,1.27
2022-11-22T04:06:54.470Z,1.00
2022-11-22T04:09:21.656Z,1.20
2022-11-22T04:11:48.689Z,0.93
2022-11-22T04:14:34.597Z,1.17
2022-11-22T04:17:01.968Z,1.13
2022-11-22T04:19:29.257Z,1.10
2022-11-22T04:21:57.725Z,1.07
2022-11-22T04:24:43.580Z,0.70
2022-11-22T04:27:10.809Z,1.13
2022-11-22T04:29:37.770Z,1.17
2022-11-22T04:32:23.830Z,1.10
2022-11-22T04:34:50.911Z,1.27
2022-11-22T04:37:18.187Z,1.20
2022-11-22T04:39:45.225Z,1.17
2022-11-22T04:42:30.717Z,1.03
2022-11-22T04:44:57.910Z,1.17
2022-11-22T04:47:54.258Z,1.40
2022-11-22T04:50:40.054Z,1.00
2022-11-22T04:53:07.608Z,1.53
2022-11-22T04:55:34.620Z,1.13
2022-11-22T04:58:02.663Z,1.13
2022-11-22T05:00:30.557Z,1.03
2022-11-22T05:02:59.053Z,1.20
2022-11-22T05:05:26.601Z,1.50
2022-11-22T05:07:54.499Z,1.20
2022-11-22T05:10:26.368Z,1.20
2022-11-22T05:12:54.190Z,1.30
2022-11-22T05:15:21.274Z,1.50
2022-11-22T05:17:48.428Z,1.50
2022-11-22T05:20:15.756Z,1.60
2022-11-22T05:23:01.495Z,1.80
2022-11-22T05:25:28.755Z,0.97
2022-11-22T05:27:55.962Z,1.17
2022-11-22T05:30:23.086Z,0.90
2022-11-22T05:32:50.161Z,1.10
2022-11-22T05:35:17.357Z,1.00
2022-11-22T05:37:44.561Z,0.90
2022-11-22T05:40:12.814Z,0.97
2022-11-22T05:42:40.051Z,1.10
2022-11-22T05:45:07.841Z,1.07
2022-11-22T05:47:36.481Z,1.07
2022-11-22T05:50:04.532Z,1.10
2022-11-22T05:52:32.319Z,1.33
2022-11-22T05:54:59.432Z,1.30
2022-11-22T05:57:26.913Z,1.00
2022-11-22T05:59:54.198Z,1.20
2022-11-22T06:02:21.616Z,1.00
2022-11-22T06:04:50.902Z,1.07
2022-11-22T06:07:18.175Z,1.07
2022-11-22T06:09:45.740Z,0.87
2022-11-22T06:12:15.683Z,1.10
2022-11-22T06:14:43.672Z,0.97
2022-11-22T06:17:10.939Z,1.20
2022-11-22T06:19:38.009Z,1.20
2022-11-22T06:22:05.150Z,0.97
2022-11-22T06:24:32.304Z,0.87
2022-11-22T06:26:59.316Z,1.33
2022-11-22T06:29:26.502Z,0.93
2022-11-22T06:31:53.623Z,0.83
2022-11-22T06:34:20.729Z,0.90
2022-11-22T06:36:47.927Z,0.90
2022-11-22T06:39:15.083Z,1.20
2022-11-22T06:41:42.219Z,1.00
2022-11-22T06:44:10.482Z,0.87
2022-11-22T06:46:38.332Z,0.63
2022-11-22T06:49:05.554Z,0.87
2022-11-22T06:51:33.315Z,0.87
2022-11-22T06:54:00.512Z,1.30
2022-11-22T06:56:38.626Z,0.83
2022-11-22T06:59:07.075Z,0.90
2022-11-22T07:01:35.052Z,0.70
2022-11-22T07:04:03.748Z,1.03
2022-11-22T07:06:33.351Z,0.87
2022-11-22T07:09:02.067Z,1.10
2022-11-22T07:11:31.955Z,0.90
2022-11-22T07:14:07.149Z,0.87
2022-11-22T07:16:36.680Z,0.70
2022-11-22T07:19:04.505Z,0.80
2022-11-22T07:21:32.600Z,0.70
2022-11-22T07:23:59.977Z,1.00
2022-11-22T07:26:28.829Z,1.00
2022-11-22T07:28:56.242Z,0.90
2022-11-22T07:31:23.805Z,0.80
2022-11-22T07:33:50.981Z,1.13
2022-11-22T07:36:20.967Z,0.97
2022-11-22T07:38:49.198Z,0.87
2022-11-22T07:41:18.149Z,0.87
2022-11-22T07:43:47.461Z,1.47
2022-11-22T07:46:22.571Z,1.07
2022-11-22T07:48:50.322Z,1.13
2022-11-22T07:51:17.968Z,1.00
2022-11-22T07:53:45.153Z,1.10
2022-11-22T07:56:12.723Z,0.87
2022-11-22T07:58:40.192Z,0.60
2022-11-22T08:01:17.022Z,0.80
2022-11-22T08:03:45.535Z,0.80
2022-11-22T08:06:14.242Z,1.20
2022-11-22T08:08:41.511Z,1.03
2022-11-22T08:11:09.146Z,0.93
2022-11-22T08:13:36.387Z,0.80
2022-11-22T08:16:09.540Z,1.10
2022-11-22T08:18:38.070Z,1.47
2022-11-22T08:21:08.139Z,1.37
2022-11-22T08:23:36.271Z,1.30
2022-11-22T08:26:04.773Z,1.50
2022-11-22T08:28:32.424Z,1.60
2022-11-22T08:31:08.734Z,1.60
2022-11-22T08:33:36.794Z,1.20
2022-11-22T08:36:04.633Z,1.47
2022-11-22T08:38:31.993Z,1.40
2022-11-22T08:40:59.330Z,1.17
2022-11-22T08:43:26.491Z,1.43
2022-11-22T08:45:58.748Z,0.90
2022-11-22T08:48:27.284Z,1.20
2022-11-22T08:50:56.926Z,1.03
2022-11-22T08:53:25.456Z,1.00
2022-11-22T08:55:52.797Z,1.07
2022-11-22T08:58:19.937Z,0.83
2022-11-22T09:00:47.060Z,0.93
2022-11-22T09:03:14.318Z,0.70
2022-11-22T09:08:32.644Z,0.70
2022-11-22T09:11:07.187Z,0.97
2022-11-22T09:13:34.699Z,0.77
2022-11-22T09:16:06.925Z,0.83
2022-11-22T09:18:34.947Z,1.00
2022-11-22T09:21:10.270Z,0.77
2022-11-22T09:23:38.001Z,0.97
2022-11-22T09:26:11.268Z,0.87
2022-11-22T09:28:38.728Z,0.90
2022-11-22T09:31:07.180Z,0.87
2022-11-22T09:33:35.991Z,0.73
2022-11-22T09:36:29.519Z,0.73
2022-11-22T09:38:57.182Z,0.90
2022-11-22T09:42:01.601Z,0.90
2022-11-22T09:44:31.458Z,0.70
2022-11-22T09:47:03.041Z,0.63
2022-11-22T09:49:43.013Z,0.67
2022-11-22T09:52:36.228Z,0.90
2022-11-22T09:55:11.440Z,0.70
2022-11-22T09:57:45.075Z,0.63
2022-11-22T10:00:26.138Z,0.57
2022-11-22T10:03:33.987Z,0.63
2022-11-22T10:06:08.333Z,0.83
2022-11-22T10:09:26.088Z,0.70
2022-11-22T10:12:00.178Z,1.00
2022-11-22T10:14:45.056Z,0.97
2022-11-22T10:17:28.793Z,0.67
2022-11-22T10:19:58.667Z,0.53
2022-11-22T10:22:30.010Z,0.53
2022-11-22T10:25:00.599Z,0.77
2022-11-22T10:27:32.119Z,0.67
2022-11-22T10:30:05.756Z,0.67
2022-11-22T10:32:51.208Z,0.70
2022-11-22T10:35:37.107Z,0.50
2022-11-22T10:38:31.822Z,0.70
2022-11-22T10:41:31.471Z,0.50
2022-11-22T10:44:23.183Z,0.60
2022-11-22T10:47:02.709Z,0.67
2022-11-22T10:50:05.504Z,0.90
2022-11-22T10:52:41.365Z,0.63
2022-11-22T10:55:33.861Z,0.60
2022-11-22T10:58:26.772Z,0.60
2022-11-22T11:01:19.523Z,0.50
2022-11-22T11:03:49.251Z,0.77
2022-11-22T11:06:57.075Z,0.60
2022-11-22T11:12:37.593Z,0.67
2022-11-22T11:15:13.247Z,0.70
2022-11-22T11:17:44.962Z,0.70
2022-11-22T11:20:25.643Z,0.60
2022-11-22T11:25:43.746Z,0.60
2022-11-22T11:28:16.728Z,0.70
2022-11-22T11:30:51.031Z,0.80
2022-11-22T11:33:32.829Z,0.70
2022-11-22T11:36:06.805Z,0.67
2022-11-22T11:38:55.916Z,0.70
2022-11-22T11:41:32.839Z,0.60
2022-11-22T11:44:02.395Z,0.60
2022-11-22T11:46:46.000Z,0.60
2022-11-22T11:49:18.440Z,0.70
2022-11-22T11:51:49.426Z,0.90
2022-11-22T11:54:23.372Z,0.63
2022-11-22T11:56:57.857Z,0.80
2022-11-22T11:59:41.009Z,0.87
2022-11-22T12:02:13.417Z,0.83
2022-11-22T12:05:21.795Z,0.53
2022-11-22T12:07:49.859Z,0.67
2022-11-22T12:10:45.621Z,0.63
2022-11-22T12:13:30.654Z,0.80
2022-11-22T12:16:30.488Z,0.57
2022-11-22T12:19:00.961Z,0.70
2022-11-22T12:21:37.025Z,0.70
2022-11-22T12:27:04.212Z,0.63
2022-11-22T12:29:35.520Z,0.50
2022-11-22T12:32:15.641Z,0.73
2022-11-22T12:35:03.722Z,0.50
2022-11-22T12:37:49.262Z,0.93
2022-11-22T12:40:45.480Z,0.40
2022-11-22T12:43:21.101Z,0.70
2022-11-22T12:45:53.009Z,0.63
2022-11-22T12:48:30.466Z,0.63
2022-11-22T12:51:06.833Z,0.47
2022-11-22T12:53:42.716Z,0.50
2022-11-22T12:56:10.396Z,0.53
2022-11-22T12:58:50.500Z,0.30
2022-11-22T13:01:35.426Z,0.60
2022-11-22T13:04:12.234Z,0.57
2022-11-22T13:06:46.078Z,0.80
2022-11-22T13:09:19.303Z,0.50
2022-11-22T13:11:51.334Z,0.47
2022-11-22T13:14:22.964Z,0.60
2022-11-22T13:16:51.320Z,0.50
2022-11-22T13:19:22.942Z,0.53
2022-11-22T13:22:14.032Z,0.50
2022-11-22T13:25:17.359Z,0.80
2022-11-22T13:27:49.155Z,0.77
2022-11-22T13:30:22.035Z,0.93
2022-11-22T13:32:58.214Z,0.90
2022-11-22T13:35:36.720Z,0.57
2022-11-22T13:38:11.571Z,0.40
2022-11-22T13:40:44.320Z,0.50
2022-11-22T13:43:22.374Z,0.60
2022-11-22T13:46:01.586Z,0.43
2022-11-22T13:48:41.120Z,0.50
2022-11-22T13:51:18.843Z,0.70
2022-11-22T13:53:48.284Z,0.37
2022-11-22T13:56:15.385Z,0.40
2022-11-22T13:59:04.785Z,0.40
2022-11-22T14:01:35.056Z,0.70
2022-11-22T14:04:21.448Z,0.50
2022-11-22T14:07:22.838Z,0.50
2022-11-22T14:09:53.525Z,0.47
2022-11-22T14:12:34.692Z,0.30
2022-11-22T14:15:31.375Z,0.43
2022-11-22T14:18:37.814Z,0.30
2022-11-22T14:21:15.524Z,0.20
2022-11-22T14:23:51.854Z,0.23
2022-11-22T14:26:24.831Z,0.40
2022-11-22T14:29:16.771Z,0.20
2022-11-22T14:32:00.705Z,0.27
2022-11-22T14:34:30.061Z,0.40
2022-11-22T14:37:15.830Z,0.30
2022-11-22T14:40:09.407Z,0.20
2022-11-22T14:42:36.958Z,0.37
2022-11-22T14:45:10.352Z,0.30
2022-11-22T14:48:03.579Z,0.27
2022-11-22T14:50:40.645Z,0.40
2022-11-22T14:53:34.915Z,0.30
2022-11-22T14:56:16.251Z,0.20
2022-11-22T14:59:01.443Z,0.30
2022-11-22T15:01:46.039Z,0.40
2022-11-22T15:09:10.054Z,0.30
2022-11-22T15:09:10.061Z,0.30
2022-11-22T15:11:26.223Z,0.40
2022-11-22T15:14:33.299Z,0.40
2022-11-22T15:57:36.038Z,0.50
2022-11-22T16:00:09.759Z,0.40
2022-11-22T16:02:48.099Z,0.43
2022-11-22T16:06:10.197Z,0.50
2022-11-22T16:08:07.083Z,0.40
2022-11-22T16:10:42.769Z,0.50
2022-11-22T16:13:19.115Z,0.33
2022-11-22T16:16:04.920Z,0.43
2022-11-22T16:18:32.471Z,0.63
2022-11-22T16:21:04.001Z,0.53
2022-11-22T16:23:37.586Z,0.50
2022-11-22T16:26:25.807Z,0.40
2022-11-22T16:28:54.599Z,0.50
2022-11-22T16:31:32.261Z,0.50
2022-11-22T16:34:00.000Z,0.40
2022-11-22T16:36:30.588Z,0.50
2022-11-22T16:38:58.720Z,0.53
2022-11-22T16:41:28.276Z,0.60
2022-11-22T16:44:00.329Z,0.60
2022-11-22T16:46:27.957Z,0.80
2022-11-22T16:48:56.499Z,0.60
2022-11-22T16:51:28.682Z,0.50
2022-11-22T16:54:00.282Z,0.60
2022-11-22T16:56:29.486Z,0.67
2022-11-22T16:58:58.193Z,0.57
2022-11-22T17:01:27.717Z,0.63
2022-11-22T17:03:57.091Z,0.60
2022-11-22T17:06:26.632Z,0.60
2022-11-22T17:08:55.969Z,0.60
2022-11-22T17:11:26.019Z,0.80
2022-11-22T17:13:54.375Z,0.70
2022-11-22T17:16:21.808Z,0.70
2022-11-22T17:18:49.520Z,0.60
2022-11-22T17:21:34.289Z,0.60
2022-11-22T17:24:07.162Z,0.80
2022-11-22T17:26:35.020Z,0.80
2022-11-22T17:29:02.497Z,0.80
2022-11-22T17:31:29.865Z,1.13
2022-11-22T17:33:58.997Z,1.07
2022-11-22T17:36:32.145Z,1.07
2022-11-22T17:39:01.244Z,1.10
2022-11-22T17:41:29.244Z,1.20
2022-11-22T17:43:57.062Z,1.37
2022-11-22T17:46:24.399Z,1.13
2022-11-22T17:48:58.957Z,1.17
2022-11-22T17:51:30.524Z,0.80
2022-11-22T17:53:58.518Z,1.17
2022-11-22T17:56:27.301Z,1.17
2022-11-22T17:58:54.447Z,1.27
2022-11-22T18:01:23.091Z,1.20
2022-11-22T18:03:50.639Z,1.43
2022-11-22T18:06:21.632Z,1.17
2022-11-22T18:08:49.059Z,1.97
2022-11-22T18:11:16.791Z,1.50
2022-11-22T18:13:44.653Z,1.27
2022-11-22T18:16:14.864Z,1.27
2022-11-22T18:18:58.817Z,1.43
2022-11-22T18:21:29.712Z,1.30
2022-11-22T18:24:01.032Z,1.20
2022-11-22T18:26:44.408Z,1.10
2022-11-22T18:32:01.543Z,1.17
2022-11-22T18:34:29.861Z,1.60
2022-11-22T18:39:44.904Z,1.17
2022-11-22T18:42:15.028Z,1.37
2022-11-22T18:44:43.032Z,0.93
2022-11-22T18:47:11.051Z,0.90
2022-11-22T18:49:38.683Z,1.00
2022-11-22T18:52:06.657Z,0.90
2022-11-22T18:54:34.465Z,1.20
2022-11-22T18:57:01.981Z,1.43
2022-11-22T18:59:29.355Z,1.00
2022-11-22T19:01:56.700Z,0.93
2022-11-22T19:04:24.287Z,1.30
2022-11-22T19:06:52.039Z,1.10
2022-11-22T19:09:19.311Z,1.10
2022-11-22T19:11:46.586Z,1.10
2022-11-22T19:14:13.964Z,1.10
2022-11-22T19:16:41.407Z,1.10
2022-11-22T19:19:12.642Z,1.00
2022-11-22T19:21:40.230Z,1.20
2022-11-22T19:24:07.914Z,1.20
2022-11-22T19:26:35.951Z,0.83
2022-11-22T19:29:05.192Z,1.40
2022-11-22T19:31:34.079Z,1.20
2022-11-22T19:34:01.918Z,1.13
2022-11-22T19:36:33.668Z,0.97
2022-11-22T19:39:04.915Z,1.20
2022-11-22T19:41:33.434Z,1.13
2022-11-22T19:44:01.658Z,1.17
2022-11-22T19:46:30.744Z,1.13
2022-11-22T19:49:00.350Z,0.87
2022-11-22T19:51:31.389Z,0.80
2022-11-22T19:54:02.912Z,1.20
2022-11-22T19:56:33.633Z,0.93
2022-11-22T19:59:03.310Z,1.20
2022-11-22T20:01:32.862Z,1.10
2022-11-22T20:04:04.028Z,1.30
2022-11-22T20:06:33.181Z,1.03
2022-11-22T20:09:12.899Z,1.00
2022-11-22T20:11:42.374Z,1.10
2022-11-22T20:14:10.611Z,0.97
2022-11-22T20:16:43.194Z,1.10
2022-11-22T20:19:12.815Z,0.80
2022-11-22T20:21:42.229Z,1.20
2022-11-22T20:24:10.105Z,1.10
2022-11-22T20:26:37.917Z,1.03
2022-11-22T20:29:11.218Z,1.13
2022-11-22T20:31:39.157Z,1.10
2022-11-22T20:34:07.020Z,1.37
2022-11-22T20:36:35.873Z,1.40
2022-11-22T20:39:09.517Z,1.07
2022-11-22T20:41:38.846Z,1.03
2022-11-22T20:44:06.773Z,1.13
2022-11-22T20:46:38.143Z,1.13
2022-11-22T20:49:05.511Z,0.80
2022-11-22T20:51:36.328Z,0.87
2022-11-22T20:54:03.770Z,1.00
2022-11-22T20:56:31.563Z,1.30
2022-11-22T20:58:59.336Z,0.87
2022-11-22T21:01:29.517Z,1.10
2022-11-22T21:03:56.950Z,0.90
2022-11-22T21:06:27.844Z,0.97
2022-11-22T21:08:55.842Z,1.00
2022-11-22T21:11:26.349Z,1.00
2022-11-22T21:13:55.887Z,1.10
2022-11-22T21:16:25.504Z,1.10
2022-11-22T21:18:55.164Z,1.20
2022-11-22T21:21:25.527Z,1.20
2022-11-22T21:23:54.673Z,1.17
2022-11-22T21:26:23.584Z,0.73
2022-11-22T21:28:52.898Z,0.90
2022-11-22T21:31:21.810Z,1.00
2022-11-22T21:33:49.511Z,1.10
2022-11-22T21:36:18.008Z,1.10
2022-11-22T21:38:45.607Z,0.97
2022-11-22T21:44:06.684Z,0.97
2022-11-22T21:46:34.064Z,1.27
2022-11-22T21:49:01.336Z,0.87
2022-11-22T21:51:28.996Z,0.80
2022-11-22T21:54:00.922Z,0.93
2022-11-22T21:56:28.380Z,0.90
2022-11-22T21:58:56.367Z,1.00
2022-11-22T22:01:24.218Z,0.93
2022-11-22T22:03:52.337Z,1.13
2022-11-22T22:06:20.374Z,0.80
2022-11-22T22:08:47.401Z,0.90
2022-11-22T22:11:15.034Z,0.70
2022-11-22T22:13:42.255Z,1.20
2022-11-22T22:16:15.958Z,1.10
2022-11-22T22:18:43.842Z,1.00
2022-11-22T22:21:12.893Z,1.10
2022-11-22T22:23:41.532Z,1.10
2022-11-22T22:26:11.433Z,0.87
2022-11-22T22:28:40.374Z,1.10
2022-11-22T22:31:25.956Z,1.00
2022-11-22T22:33:57.690Z,0.93
2022-11-22T22:36:26.657Z,1.03
2022-11-22T22:38:55.218Z,0.77
2022-11-22T22:41:22.541Z,0.80
2022-11-22T22:43:49.960Z,0.90
2022-11-22T22:46:20.346Z,1.17
2022-11-22T22:48:49.303Z,0.90
2022-11-22T22:51:20.188Z,1.27
2022-11-22T22:53:47.935Z,0.70
2022-11-22T22:56:16.832Z,0.80
2022-11-22T22:58:44.886Z,0.90
2022-11-22T23:01:17.789Z,1.07
2022-11-22T23:03:53.636Z,0.90
2022-11-22T23:06:25.085Z,0.97
2022-11-22T23:08:53.650Z,1.07
2022-11-22T23:11:43.544Z,1.00
2022-11-22T23:14:12.055Z,1.33
2022-11-22T23:16:40.476Z,0.87
2022-11-22T23:19:08.196Z,1.00
2022-11-22T23:21:35.963Z,1.00
2022-11-22T23:24:03.929Z,1.20
2022-11-22T23:26:31.584Z,1.13
2022-11-22T23:28:59.601Z,1.30
2022-11-22T23:31:27.500Z,1.40
2022-11-22T23:33:54.851Z,1.30
2022-11-22T23:36:23.326Z,1.17
2022-11-22T23:38:50.514Z,1.13
2022-11-22T23:41:20.280Z,1.20
2022-11-22T23:43:48.397Z,0.90
2022-11-22T23:46:18.809Z,0.97
2022-11-22T23:48:54.493Z,1.30
2022-11-22T23:51:22.657Z,1.27
2022-11-22T23:53:53.480Z,1.30
2022-11-22T23:56:22.093Z,1.20
2022-11-22T23:58:50.191Z,1.30
